Rhenen, Netherlands
Current Conditions -  °F | °C
As of 4:25 AM on Thursday 23 Oct 2014 (Local Time) from EHDL Reporting Station
Haze Haze  
Wind Chill: 48°   Ceiling: 2300
Heat Index: 48°   Visibility: 2.1mi
Dew Point: 48°   Wind: 2mph
Humidity: 100%   Direction: 170°S
Pressure: 30.15"   Gusts: NA
Location:  51.96°N, 5.57°E
Report Text: EHDL 230225Z AUTO 17002KT 3400 BR BKN023 OVC028 09/09 Q1021 YLO
Loading
Personal Weather Stations






























Interactive Weather Map
Tropical Storm Tracking
New forecast layout! Learn more

10-Day Weather Forecast

Advertisements
Track Severe Weather on mobile